createdAt,value
2022-07-29T00:01:20.036Z,4.40
2022-07-29T00:11:24.626Z,3.97
2022-07-29T00:21:27.703Z,4.40
2022-07-29T00:31:32.358Z,3.78
2022-07-29T00:41:35.447Z,4.93
2022-07-29T00:51:40.273Z,4.55
2022-07-29T01:01:43.333Z,4.43
2022-07-29T01:11:49.582Z,5.95
2022-07-29T01:21:57.254Z,6.18
2022-07-29T01:32:05.923Z,4.95
2022-07-29T01:42:16.696Z,3.55
2022-07-29T01:52:29.661Z,4.13
2022-07-29T02:02:34.770Z,6.95
2022-07-29T02:12:41.230Z,4.25
2022-07-29T02:22:47.011Z,3.67
2022-07-29T02:32:52.919Z,4.00
2022-07-29T02:42:56.603Z,4.38
2022-07-29T02:53:05.325Z,4.13
2022-07-29T03:03:13.121Z,4.20
2022-07-29T03:13:18.234Z,3.75
2022-07-29T03:23:23.615Z,4.75
2022-07-29T03:33:29.897Z,4.40
2022-07-29T03:43:36.461Z,4.32
2022-07-29T03:53:40.947Z,4.35
2022-07-29T04:03:46.173Z,5.38
2022-07-29T04:13:50.705Z,6.32
2022-07-29T04:23:54.074Z,4.65
2022-07-29T04:33:58.544Z,5.10
2022-07-29T04:44:01.939Z,5.20
2022-07-29T04:54:07.084Z,3.90
2022-07-29T05:04:10.131Z,6.13
2022-07-29T05:14:14.874Z,6.47
2022-07-29T05:24:19.294Z,5.28
2022-07-29T05:34:24.736Z,4.82
2022-07-29T05:44:28.033Z,5.32
2022-07-29T05:54:32.433Z,4.95
2022-07-29T06:04:35.680Z,5.40
2022-07-29T06:14:40.100Z,4.57
2022-07-29T06:24:44.849Z,5.03
2022-07-29T06:34:49.266Z,4.20
2022-07-29T06:44:52.276Z,4.57
2022-07-29T06:54:56.765Z,4.93
2022-07-29T07:05:00.374Z,4.28
2022-07-29T07:15:05.451Z,4.38
2022-07-29T07:25:09.820Z,4.68
2022-07-29T07:35:14.942Z,4.03
2022-07-29T07:45:18.081Z,5.15
2022-07-29T07:55:23.034Z,4.32
2022-07-29T08:05:26.337Z,5.25
2022-07-29T08:15:30.831Z,5.28
2022-07-29T08:25:34.658Z,4.97
2022-07-29T08:35:43.294Z,5.32
2022-07-29T08:45:49.529Z,7.88
2022-07-29T08:55:55.097Z,6.72
2022-07-29T09:05:58.360Z,5.15
2022-07-29T09:16:08.564Z,5.47
2022-07-29T09:26:12.539Z,6.20
2022-07-29T09:36:17.710Z,5.57
2022-07-29T09:46:22.371Z,5.28
2022-07-29T09:56:40.917Z,6.57
2022-07-29T10:07:04.401Z,7.35
2022-07-29T10:17:10.572Z,6.50
2022-07-29T10:27:13.751Z,6.72
2022-07-29T10:37:26.750Z,4.72
2022-07-29T10:47:30.986Z,5.82
2022-07-29T10:57:53.303Z,5.20
2022-07-29T11:08:26.510Z,6.13
2022-07-29T11:18:32.396Z,4.90
2022-07-29T11:28:37.456Z,4.32
2022-07-29T11:38:42.538Z,4.75
2022-07-29T11:48:46.790Z,4.50
2022-07-29T11:59:08.533Z,4.70
2022-07-29T12:09:14.535Z,5.28
2022-07-29T12:19:19.252Z,5.50
2022-07-29T12:29:33.655Z,5.47
2022-07-29T12:39:40.450Z,5.18
2022-07-29T12:49:43.787Z,5.82
2022-07-29T13:00:06.395Z,6.03
2022-07-29T13:10:15.565Z,5.80
2022-07-29T13:20:20.177Z,5.40
2022-07-29T13:30:23.826Z,5.75
2022-07-29T13:40:30.091Z,3.20
2022-07-29T13:50:33.482Z,2.80
2022-07-29T14:00:37.895Z,2.00
2022-07-29T14:10:40.936Z,2.42
2022-07-29T14:20:45.363Z,2.30
2022-07-29T14:30:48.514Z,3.15
2022-07-29T14:40:52.951Z,5.43
2022-07-29T14:50:58.360Z,4.47
2022-07-29T15:01:04.797Z,2.72
2022-07-29T15:11:08.235Z,3.30
2022-07-29T15:21:12.659Z,4.97
2022-07-29T15:31:15.873Z,2.60
2022-07-29T15:41:20.298Z,3.58
2022-07-29T15:51:23.558Z,1.65
2022-07-29T16:01:28.169Z,1.30
2022-07-29T16:11:31.392Z,1.92
2022-07-29T16:21:36.180Z,2.20
2022-07-29T16:31:39.318Z,2.08
2022-07-29T16:41:43.823Z,2.08
2022-07-29T16:51:47.712Z,2.00
2022-07-29T17:01:52.232Z,2.80
2022-07-29T17:11:55.943Z,2.20
2022-07-29T17:22:09.489Z,1.58
2022-07-29T17:32:14.925Z,3.20
2022-07-29T17:42:19.309Z,1.70
2022-07-29T17:52:22.331Z,2.67
2022-07-29T18:02:26.845Z,2.47
2022-07-29T18:12:31.734Z,4.25
2022-07-29T18:22:36.252Z,3.17
2022-07-29T18:32:39.326Z,3.22
2022-07-29T18:42:43.723Z,2.72
2022-07-29T18:52:47.389Z,2.88
2022-07-29T19:02:52.587Z,2.70
2022-07-29T19:12:56.802Z,2.40
2022-07-29T19:23:01.239Z,3.03
2022-07-29T19:33:04.381Z,3.28
2022-07-29T19:43:52.171Z,4.43
2022-07-29T19:53:33.413Z,2.25
2022-07-29T20:03:39.616Z,3.40
2022-07-29T20:13:42.712Z,3.55
2022-07-29T20:23:47.120Z,4.38
2022-07-29T20:33:50.719Z,2.72
2022-07-29T20:43:55.170Z,5.00
2022-07-29T20:53:58.316Z,3.00
2022-07-29T21:04:03.197Z,3.13
2022-07-29T21:14:06.374Z,2.97
2022-07-29T21:24:12.068Z,3.53
2022-07-29T21:34:15.656Z,4.13
2022-07-29T21:44:21.778Z,3.25
2022-07-29T21:54:24.843Z,2.90
2022-07-29T22:04:29.792Z,3.45
2022-07-29T22:14:32.989Z,2.60
2022-07-29T22:24:37.440Z,3.20
2022-07-29T22:34:40.611Z,2.53
2022-07-29T22:44:45.253Z,2.67
2022-07-29T22:54:48.316Z,3.42
2022-07-29T23:04:52.699Z,3.63
2022-07-29T23:14:55.722Z,3.28
2022-07-29T23:25:00.135Z,2.63
2022-07-29T23:35:05.229Z,4.60
2022-07-29T23:45:11.494Z,3.10
2022-07-29T23:55:36.559Z,2.88
